sensor_id;sensor_type;location;lat;lon;timestamp;pressure;altitude;pressure_sealevel;temperature;humidity
50057;BME280;36875;49.468;11.200;2023-02-23T00:01:57;97520.34;;;24.25;35.74
50057;BME280;36875;49.468;11.200;2023-02-23T00:04:33;97525.50;;;24.14;35.70
50057;BME280;36875;49.468;11.200;2023-02-23T00:06:59;97522.31;;;24.12;35.76
50057;BME280;36875;49.468;11.200;2023-02-23T00:09:24;97531.50;;;24.04;35.69
50057;BME280;36875;49.468;11.200;2023-02-23T00:11:51;97534.34;;;24.08;36.02
50057;BME280;36875;49.468;11.200;2023-02-23T00:14:18;97526.00;;;24.04;35.91
50057;BME280;36875;49.468;11.200;2023-02-23T00:16:44;97526.59;;;23.97;35.96
50057;BME280;36875;49.468;11.200;2023-02-23T00:19:10;97524.31;;;23.87;36.33
50057;BME280;36875;49.468;11.200;2023-02-23T00:21:38;97531.97;;;23.94;36.13
50057;BME280;36875;49.468;11.200;2023-02-23T00:24:06;97525.47;;;23.86;36.35
50057;BME280;36875;49.468;11.200;2023-02-23T00:26:36;97525.38;;;23.82;36.05
50057;BME280;36875;49.468;11.200;2023-02-23T00:29:03;97524.53;;;23.82;36.26
50057;BME280;36875;49.468;11.200;2023-02-23T00:31:31;97516.97;;;23.79;36.36
50057;BME280;36875;49.468;11.200;2023-02-23T00:34:00;97522.63;;;23.82;36.37
50057;BME280;36875;49.468;11.200;2023-02-23T00:36:29;97524.09;;;23.80;36.14
50057;BME280;36875;49.468;11.200;2023-02-23T00:38:57;97522.47;;;23.79;36.22
50057;BME280;36875;49.468;11.200;2023-02-23T00:41:25;97515.72;;;23.76;36.36
50057;BME280;36875;49.468;11.200;2023-02-23T00:43:53;97520.88;;;23.78;36.12
50057;BME280;36875;49.468;11.200;2023-02-23T00:46:20;97522.38;;;23.75;36.14
50057;BME280;36875;49.468;11.200;2023-02-23T00:48:50;97522.47;;;23.66;36.21
50057;BME280;36875;49.468;11.200;2023-02-23T00:51:17;97522.47;;;23.66;36.13
50057;BME280;36875;49.468;11.200;2023-02-23T00:53:43;97518.03;;;23.62;36.08
50057;BME280;36875;49.468;11.200;2023-02-23T00:56:11;97512.88;;;23.60;36.28
50057;BME280;36875;49.468;11.200;2023-02-23T00:58:37;97513.22;;;23.59;36.34
50057;BME280;36875;49.468;11.200;2023-02-23T01:01:04;97516.66;;;23.56;36.34
50057;BME280;36875;49.468;11.200;2023-02-23T01:03:30;97523.19;;;23.51;36.27
50057;BME280;36875;49.468;11.200;2023-02-23T01:05:59;97525.22;;;23.54;36.25
50057;BME280;36875;49.468;11.200;2023-02-23T01:08:28;97516.44;;;23.48;36.36
50057;BME280;36875;49.468;11.200;2023-02-23T01:10:54;97523.53;;;23.50;36.41
50057;BME280;36875;49.468;11.200;2023-02-23T01:13:20;97525.72;;;23.44;36.31
50057;BME280;36875;49.468;11.200;2023-02-23T01:15:46;97531.19;;;23.44;36.22
50057;BME280;36875;49.468;11.200;2023-02-23T01:18:12;97528.78;;;23.42;36.47
50057;BME280;36875;49.468;11.200;2023-02-23T01:20:38;97530.63;;;23.38;36.41
50057;BME280;36875;49.468;11.200;2023-02-23T01:23:07;97526.16;;;23.34;36.32
50057;BME280;36875;49.468;11.200;2023-02-23T01:25:34;97520.78;;;23.37;36.34
50057;BME280;36875;49.468;11.200;2023-02-23T01:28:00;97517.91;;;23.34;36.41
50057;BME280;36875;49.468;11.200;2023-02-23T01:30:26;97515.28;;;23.37;36.40
50057;BME280;36875;49.468;11.200;2023-02-23T01:32:51;97516.56;;;23.40;36.39
50057;BME280;36875;49.468;11.200;2023-02-23T01:35:17;97516.44;;;23.36;36.32
50057;BME280;36875;49.468;11.200;2023-02-23T01:37:42;97516.66;;;23.31;36.42
50057;BME280;36875;49.468;11.200;2023-02-23T01:40:14;97527.53;;;23.27;36.34
50057;BME280;36875;49.468;11.200;2023-02-23T01:42:42;97516.66;;;23.31;36.29
50057;BME280;36875;49.468;11.200;2023-02-23T01:45:20;97515.06;;;23.30;36.43
50057;BME280;36875;49.468;11.200;2023-02-23T01:47:47;97513.00;;;23.27;36.27
50057;BME280;36875;49.468;11.200;2023-02-23T01:50:13;97515.63;;;23.23;36.06
50057;BME280;36875;49.468;11.200;2023-02-23T01:52:41;97514.25;;;23.17;36.43
50057;BME280;36875;49.468;11.200;2023-02-23T01:55:08;97518.59;;;23.18;36.39
50057;BME280;36875;49.468;11.200;2023-02-23T01:57:39;97518.16;;;23.16;36.55
50057;BME280;36875;49.468;11.200;2023-02-23T02:00:07;97517.44;;;23.19;36.36
50057;BME280;36875;49.468;11.200;2023-02-23T02:02:40;97507.84;;;23.13;36.44
50057;BME280;36875;49.468;11.200;2023-02-23T02:05:06;97504.97;;;23.09;36.45
50057;BME280;36875;49.468;11.200;2023-02-23T02:07:38;97513.22;;;23.09;36.49
50057;BME280;36875;49.468;11.200;2023-02-23T02:10:07;97516.16;;;23.04;36.60
50057;BME280;36875;49.468;11.200;2023-02-23T02:12:38;97511.81;;;23.03;36.48
50057;BME280;36875;49.468;11.200;2023-02-23T02:15:05;97511.13;;;22.94;36.69
50057;BME280;36875;49.468;11.200;2023-02-23T02:17:37;97502.88;;;22.94;36.54
50057;BME280;36875;49.468;11.200;2023-02-23T02:20:25;97510.28;;;22.94;36.40
50057;BME280;36875;49.468;11.200;2023-02-23T02:23:33;97512.91;;;22.90;36.55
50057;BME280;36875;49.468;11.200;2023-02-23T02:26:17;97508.91;;;22.87;36.75
50057;BME280;36875;49.468;11.200;2023-02-23T02:29:14;97514.28;;;22.84;36.67
50057;BME280;36875;49.468;11.200;2023-02-23T02:32:10;97520.09;;;22.82;36.63
50057;BME280;36875;49.468;11.200;2023-02-23T02:35:00;97516.44;;;22.78;36.63
50057;BME280;36875;49.468;11.200;2023-02-23T02:38:04;97513.91;;;22.73;36.87
50057;BME280;36875;49.468;11.200;2023-02-23T02:40:37;97517.94;;;22.76;36.63
50057;BME280;36875;49.468;11.200;2023-02-23T02:43:23;97516.84;;;22.68;36.86
50057;BME280;36875;49.468;11.200;2023-02-23T02:45:52;97508.41;;;22.61;36.88
50057;BME280;36875;49.468;11.200;2023-02-23T02:48:23;97513.53;;;22.62;36.78
50057;BME280;36875;49.468;11.200;2023-02-23T02:50:59;97506.34;;;22.58;36.84
50057;BME280;36875;49.468;11.200;2023-02-23T02:53:40;97508.94;;;22.54;36.87
50057;BME280;36875;49.468;11.200;2023-02-23T02:56:07;97509.63;;;22.51;36.92
50057;BME280;36875;49.468;11.200;2023-02-23T02:58:34;97501.25;;;22.47;36.87
50057;BME280;36875;49.468;11.200;2023-02-23T03:01:05;97505.50;;;22.45;37.09
50057;BME280;36875;49.468;11.200;2023-02-23T03:03:50;97502.75;;;22.45;37.04
50057;BME280;36875;49.468;11.200;2023-02-23T03:06:37;97503.06;;;22.43;37.02
50057;BME280;36875;49.468;11.200;2023-02-23T03:09:33;97505.69;;;22.40;37.04
50057;BME280;36875;49.468;11.200;2023-02-23T03:12:26;97508.63;;;22.35;36.96
50057;BME280;36875;49.468;11.200;2023-02-23T03:15:15;97505.44;;;22.32;37.08
50057;BME280;36875;49.468;11.200;2023-02-23T03:18:11;97512.41;;;22.30;37.03
50057;BME280;36875;49.468;11.200;2023-02-23T03:21:07;97513.06;;;22.27;36.93
50057;BME280;36875;49.468;11.200;2023-02-23T03:24:03;97508.56;;;22.22;37.12
50057;BME280;36875;49.468;11.200;2023-02-23T03:26:54;97506.94;;;22.21;37.06
50057;BME280;36875;49.468;11.200;2023-02-23T03:29:45;97511.19;;;22.19;37.35
50057;BME280;36875;49.468;11.200;2023-02-23T03:32:35;97516.28;;;22.20;37.28
50057;BME280;36875;49.468;11.200;2023-02-23T03:35:24;97516.84;;;22.13;37.21
50057;BME280;36875;49.468;11.200;2023-02-23T03:38:13;97520.72;;;22.12;37.21
50057;BME280;36875;49.468;11.200;2023-02-23T03:41:00;97517.06;;;22.08;37.29
50057;BME280;36875;49.468;11.200;2023-02-23T03:43:49;97517.72;;;22.05;37.14
50057;BME280;36875;49.468;11.200;2023-02-23T03:46:36;97511.91;;;22.07;37.18
50057;BME280;36875;49.468;11.200;2023-02-23T03:49:23;97515.97;;;22.01;37.34
50057;BME280;36875;49.468;11.200;2023-02-23T03:52:13;97513.13;;;21.97;37.42
50057;BME280;36875;49.468;11.200;2023-02-23T03:55:02;97515.25;;;21.91;37.92
50057;BME280;36875;49.468;11.200;2023-02-23T03:57:51;97514.47;;;21.91;37.35
50057;BME280;36875;49.468;11.200;2023-02-23T04:00:43;97511.72;;;21.91;37.55
50057;BME280;36875;49.468;11.200;2023-02-23T04:03:31;97505.59;;;21.85;37.35
50057;BME280;36875;49.468;11.200;2023-02-23T04:06:17;97511.31;;;21.80;37.31
50057;BME280;36875;49.468;11.200;2023-02-23T04:09:04;97516.91;;;21.84;37.20
50057;BME280;36875;49.468;11.200;2023-02-23T04:11:51;97520.31;;;21.81;37.35
50057;BME280;36875;49.468;11.200;2023-02-23T04:14:42;97515.97;;;21.80;37.63
50057;BME280;36875;49.468;11.200;2023-02-23T04:17:11;97518.22;;;21.78;37.71
50057;BME280;36875;49.468;11.200;2023-02-23T04:19:48;97525.19;;;21.75;37.55
50057;BME280;36875;49.468;11.200;2023-02-23T04:22:13;97520.03;;;21.73;37.58
50057;BME280;36875;49.468;11.200;2023-02-23T04:24:38;97532.78;;;21.69;37.46
50057;BME280;36875;49.468;11.200;2023-02-23T04:27:04;97519.09;;;21.69;37.58
50057;BME280;36875;49.468;11.200;2023-02-23T04:29:30;97531.19;;;21.68;37.40
50057;BME280;36875;49.468;11.200;2023-02-23T04:31:55;97527.50;;;21.64;37.36
50057;BME280;36875;49.468;11.200;2023-02-23T04:34:24;97532.50;;;21.62;37.40
50057;BME280;36875;49.468;11.200;2023-02-23T04:36:49;97529.63;;;21.59;37.71
50057;BME280;36875;49.468;11.200;2023-02-23T04:39:15;97526.09;;;21.58;37.45
50057;BME280;36875;49.468;11.200;2023-02-23T04:41:41;97524.47;;;21.57;37.38
50057;BME280;36875;49.468;11.200;2023-02-23T04:44:06;97533.84;;;21.56;37.45
50057;BME280;36875;49.468;11.200;2023-02-23T04:46:31;97536.09;;;21.54;37.66
50057;BME280;36875;49.468;11.200;2023-02-23T04:48:57;97527.72;;;21.50;37.91
50057;BME280;36875;49.468;11.200;2023-02-23T04:51:24;97524.53;;;21.48;37.84
50057;BME280;36875;49.468;11.200;2023-02-23T04:53:54;97532.25;;;21.46;37.80
50057;BME280;36875;49.468;11.200;2023-02-23T04:56:20;97530.69;;;21.45;37.95
50057;BME280;36875;49.468;11.200;2023-02-23T04:58:45;97529.84;;;21.45;37.95
50057;BME280;36875;49.468;11.200;2023-02-23T05:01:11;97534.34;;;21.41;37.93
50057;BME280;36875;49.468;11.200;2023-02-23T05:03:36;97538.56;;;21.38;37.76
50057;BME280;36875;49.468;11.200;2023-02-23T05:06:02;97534.53;;;21.35;37.60
50057;BME280;36875;49.468;11.200;2023-02-23T05:08:29;97531.00;;;21.35;37.75
50057;BME280;36875;49.468;11.200;2023-02-23T05:10:55;97536.81;;;21.33;37.92
50057;BME280;36875;49.468;11.200;2023-02-23T05:13:20;97539.06;;;21.31;37.93
50057;BME280;36875;49.468;11.200;2023-02-23T05:15:46;97536.34;;;21.31;37.67
50057;BME280;36875;49.468;11.200;2023-02-23T05:18:11;97540.22;;;21.30;37.87
50057;BME280;36875;49.468;11.200;2023-02-23T05:20:37;97529.91;;;21.27;37.76
50057;BME280;36875;49.468;11.200;2023-02-23T05:23:02;97530.41;;;21.21;37.85
50057;BME280;36875;49.468;11.200;2023-02-23T05:25:29;97537.97;;;21.24;37.93
50057;BME280;36875;49.468;11.200;2023-02-23T05:27:55;97527.34;;;21.22;37.91
50057;BME280;36875;49.468;11.200;2023-02-23T05:30:20;97532.38;;;21.20;37.83
50057;BME280;36875;49.468;11.200;2023-02-23T05:32:46;97536.56;;;21.17;37.81
50057;BME280;36875;49.468;11.200;2023-02-23T05:35:11;97538.81;;;21.15;38.05
50057;BME280;36875;49.468;11.200;2023-02-23T05:37:37;97536.88;;;21.16;37.83
50057;BME280;36875;49.468;11.200;2023-02-23T05:40:03;97534.00;;;21.12;37.93
50057;BME280;36875;49.468;11.200;2023-02-23T05:42:30;97531.13;;;21.09;37.70
50057;BME280;36875;49.468;11.200;2023-02-23T05:44:55;97533.38;;;21.07;37.77
50057;BME280;36875;49.468;11.200;2023-02-23T05:47:21;97534.19;;;21.07;37.79
50057;BME280;36875;49.468;11.200;2023-02-23T05:49:46;97538.38;;;21.05;37.85
50057;BME280;36875;49.468;11.200;2023-02-23T05:52:12;97543.38;;;21.03;38.08
50057;BME280;36875;49.468;11.200;2023-02-23T05:54:37;97539.03;;;21.02;37.96
50057;BME280;36875;49.468;11.200;2023-02-23T05:57:05;97530.81;;;21.02;37.73
50057;BME280;36875;49.468;11.200;2023-02-23T05:59:33;97540.81;;;20.97;37.82
50057;BME280;36875;49.468;11.200;2023-02-23T06:01:59;97541.13;;;20.96;38.01
50057;BME280;36875;49.468;11.200;2023-02-23T06:04:24;97541.47;;;20.94;38.01
50057;BME280;36875;49.468;11.200;2023-02-23T06:06:50;97542.56;;;20.93;37.93
50057;BME280;36875;49.468;11.200;2023-02-23T06:09:16;97538.25;;;20.92;38.30
50057;BME280;36875;49.468;11.200;2023-02-23T06:11:41;97545.19;;;20.90;37.96
50057;BME280;36875;49.468;11.200;2023-02-23T06:14:07;97543.88;;;20.87;38.29
50057;BME280;36875;49.468;11.200;2023-02-23T06:16:34;97543.88;;;20.87;38.12
50057;BME280;36875;49.468;11.200;2023-02-23T06:18:59;97548.88;;;20.85;38.22
50057;BME280;36875;49.468;11.200;2023-02-23T06:21:26;97550.81;;;20.85;38.19
50057;BME280;36875;49.468;11.200;2023-02-23T06:23:52;97558.22;;;20.84;38.23
50057;BME280;36875;49.468;11.200;2023-02-23T06:26:17;97562.41;;;20.82;38.07
50057;BME280;36875;49.468;11.200;2023-02-23T06:28:43;97562.72;;;20.80;38.12
50057;BME280;36875;49.468;11.200;2023-02-23T06:31:08;97561.13;;;20.79;38.20
50057;BME280;36875;49.468;11.200;2023-02-23T06:33:35;97567.25;;;20.76;38.03
50057;BME280;36875;49.468;11.200;2023-02-23T06:36:01;97569.97;;;20.76;38.07
50057;BME280;36875;49.468;11.200;2023-02-23T06:38:26;97568.34;;;20.75;38.11
50057;BME280;36875;49.468;11.200;2023-02-23T06:40:52;97569.81;;;20.72;38.04
50057;BME280;36875;49.468;11.200;2023-02-23T06:43:17;97569.03;;;20.72;38.15
50057;BME280;36875;49.468;11.200;2023-02-23T06:45:45;97564.84;;;20.66;38.25
50057;BME280;36875;49.468;11.200;2023-02-23T06:48:10;97575.13;;;20.69;37.99
50057;BME280;36875;49.468;11.200;2023-02-23T06:50:37;97580.13;;;20.67;38.09
50057;BME280;36875;49.468;11.200;2023-02-23T06:53:03;97583.97;;;20.66;37.97
50057;BME280;36875;49.468;11.200;2023-02-23T06:55:29;97581.59;;;20.64;38.33
50057;BME280;36875;49.468;11.200;2023-02-23T06:57:54;97586.53;;;20.62;38.11
50057;BME280;36875;49.468;11.200;2023-02-23T07:00:21;97593.94;;;20.62;38.09
50057;BME280;36875;49.468;11.200;2023-02-23T07:02:46;97594.56;;;20.58;38.38
50057;BME280;36875;49.468;11.200;2023-02-23T07:05:12;97592.97;;;20.57;38.08
50057;BME280;36875;49.468;11.200;2023-02-23T07:07:39;97596.81;;;20.56;38.39
50057;BME280;36875;49.468;11.200;2023-02-23T07:10:05;97599.06;;;20.54;38.05
50057;BME280;36875;49.468;11.200;2023-02-23T07:12:31;97608.41;;;20.53;38.21
50057;BME280;36875;49.468;11.200;2023-02-23T07:14:56;97601.97;;;20.49;38.32
50057;BME280;36875;49.468;11.200;2023-02-23T07:17:22;97601.16;;;20.49;39.01
50057;BME280;36875;49.468;11.200;2023-02-23T07:19:48;97611.78;;;20.50;39.21
50057;BME280;36875;49.468;11.200;2023-02-23T07:22:13;97614.50;;;20.50;39.31
50057;BME280;36875;49.468;11.200;2023-02-23T07:24:40;97611.78;;;20.50;39.33
50057;BME280;36875;49.468;11.200;2023-02-23T07:27:05;97612.25;;;20.52;39.41
50057;BME280;36875;49.468;11.200;2023-02-23T07:29:31;97614.69;;;20.54;39.10
50057;BME280;36875;49.468;11.200;2023-02-23T07:31:56;97609.84;;;20.51;39.38
50057;BME280;36875;49.468;11.200;2023-02-23T07:34:22;97607.59;;;20.53;39.42
50057;BME280;36875;49.468;11.200;2023-02-23T07:36:48;97607.75;;;20.56;39.10
50057;BME280;36875;49.468;11.200;2023-02-23T07:39:13;97611.16;;;20.62;39.34
50057;BME280;36875;49.468;11.200;2023-02-23T07:41:40;97606.16;;;20.73;39.08
50057;BME280;36875;49.468;11.200;2023-02-23T07:44:05;97607.28;;;20.80;39.32
50057;BME280;36875;49.468;11.200;2023-02-23T07:46:31;97598.91;;;20.94;38.85
50057;BME280;36875;49.468;11.200;2023-02-23T07:48:56;97608.50;;;21.18;38.32
50057;BME280;36875;49.468;11.200;2023-02-23T07:51:22;97607.63;;;21.44;38.15
50057;BME280;36875;49.468;11.200;2023-02-23T07:53:47;97602.81;;;21.79;37.78
50057;BME280;36875;49.468;11.200;2023-02-23T07:56:13;97604.38;;;22.19;37.19
50057;BME280;36875;49.468;11.200;2023-02-23T07:58:41;97607.47;;;22.38;36.83
50057;BME280;36875;49.468;11.200;2023-02-23T08:01:07;97605.72;;;22.55;36.69
50057;BME280;36875;49.468;11.200;2023-02-23T08:03:33;97610.53;;;22.58;37.02
50057;BME280;36875;49.468;11.200;2023-02-23T08:05:59;97606.56;;;22.88;36.46
50057;BME280;36875;49.468;11.200;2023-02-23T08:08:24;97607.28;;;22.98;36.49
50057;BME280;36875;49.468;11.200;2023-02-23T08:10:50;97612.19;;;23.25;35.90
50057;BME280;36875;49.468;11.200;2023-02-23T08:13:15;97612.63;;;23.27;35.98
50057;BME280;36875;49.468;11.200;2023-02-23T08:15:43;97611.53;;;23.53;35.62
50057;BME280;36875;49.468;11.200;2023-02-23T08:18:08;97617.91;;;23.45;35.70
50057;BME280;36875;49.468;11.200;2023-02-23T08:20:34;97614.53;;;23.60;35.66
50057;BME280;36875;49.468;11.200;2023-02-23T08:22:59;97603.63;;;23.76;35.58
50057;BME280;36875;49.468;11.200;2023-02-23T08:25:25;97610.63;;;23.98;35.26
50057;BME280;36875;49.468;11.200;2023-02-23T08:27:54;97618.19;;;24.01;35.13
50057;BME280;36875;49.468;11.200;2023-02-23T08:30:21;97618.66;;;24.03;35.04
50057;BME280;36875;49.468;11.200;2023-02-23T08:32:49;97615.22;;;24.07;35.09
50057;BME280;36875;49.468;11.200;2023-02-23T08:35:17;97616.78;;;23.71;35.35
50057;BME280;36875;49.468;11.200;2023-02-23T08:37:44;97615.22;;;23.70;35.49
50057;BME280;36875;49.468;11.200;2023-02-23T08:40:11;97619.31;;;23.76;35.29
50057;BME280;36875;49.468;11.200;2023-02-23T08:42:39;97619.56;;;23.58;35.10
50057;BME280;36875;49.468;11.200;2023-02-23T08:45:06;97621.84;;;23.68;34.72
50057;BME280;36875;49.468;11.200;2023-02-23T08:47:31;97613.63;;;23.93;34.48
50057;BME280;36875;49.468;11.200;2023-02-23T08:49:59;97617.97;;;24.07;34.23
50057;BME280;36875;49.468;11.200;2023-02-23T08:52:25;97608.94;;;23.94;34.45
50057;BME280;36875;49.468;11.200;2023-02-23T08:54:50;97614.16;;;24.23;34.01
50057;BME280;36875;49.468;11.200;2023-02-23T08:57:16;97618.47;;;24.37;33.63
50057;BME280;36875;49.468;11.200;2023-02-23T08:59:42;97615.78;;;24.12;33.93
50057;BME280;36875;49.468;11.200;2023-02-23T09:02:11;97619.09;;;24.18;33.98
50057;BME280;36875;49.468;11.200;2023-02-23T09:04:36;97621.28;;;24.12;34.00
50057;BME280;36875;49.468;11.200;2023-02-23T09:07:04;97620.91;;;24.26;33.99
50057;BME280;36875;49.468;11.200;2023-02-23T09:09:30;97626.41;;;24.26;33.89
50057;BME280;36875;49.468;11.200;2023-02-23T09:11:55;97626.88;;;24.28;33.85
50057;BME280;36875;49.468;11.200;2023-02-23T09:14:21;97623.41;;;24.31;33.61
50057;BME280;36875;49.468;11.200;2023-02-23T09:16:47;97617.59;;;24.20;33.82
50057;BME280;36875;49.468;11.200;2023-02-23T09:19:13;97634.31;;;24.28;33.86
50057;BME280;36875;49.468;11.200;2023-02-23T09:21:39;97620.28;;;24.04;34.05
50057;BME280;36875;49.468;11.200;2023-02-23T09:24:06;97631.03;;;24.10;34.13
50057;BME280;36875;49.468;11.200;2023-02-23T09:26:31;97627.56;;;24.13;34.22
50057;BME280;36875;49.468;11.200;2023-02-23T09:28:58;97632.97;;;24.09;33.98
50057;BME280;36875;49.468;11.200;2023-02-23T09:31:24;97633.44;;;23.99;34.32
50057;BME280;36875;49.468;11.200;2023-02-23T09:33:50;97632.16;;;23.96;34.44
50057;BME280;36875;49.468;11.200;2023-02-23T09:36:18;97631.72;;;23.94;34.21
50057;BME280;36875;49.468;11.200;2023-02-23T09:38:44;97625.09;;;23.95;34.29
50057;BME280;36875;49.468;11.200;2023-02-23T09:41:39;97632.28;;;24.00;34.08
50057;BME280;36875;49.468;11.200;2023-02-23T09:44:16;97636.66;;;23.89;34.50
50057;BME280;36875;49.468;11.200;2023-02-23T09:46:56;97639.22;;;23.73;34.55
50057;BME280;36875;49.468;11.200;2023-02-23T09:49:28;97634.81;;;23.93;34.15
50057;BME280;36875;49.468;11.200;2023-02-23T09:51:57;97629.19;;;24.01;34.00
50057;BME280;36875;49.468;11.200;2023-02-23T09:54:28;97629.19;;;23.89;34.05
50057;BME280;36875;49.468;11.200;2023-02-23T09:56:56;97631.66;;;23.57;34.63
50057;BME280;36875;49.468;11.200;2023-02-23T09:59:23;97637.41;;;23.64;34.17
50057;BME280;36875;49.468;11.200;2023-02-23T10:01:58;97630.84;;;23.44;34.50
50057;BME280;36875;49.468;11.200;2023-02-23T10:04:31;97638.63;;;23.42;34.76
50057;BME280;36875;49.468;11.200;2023-02-23T10:07:04;97631.97;;;23.43;34.99
50057;BME280;36875;49.468;11.200;2023-02-23T10:09:43;97638.50;;;23.39;34.88
50057;BME280;36875;49.468;11.200;2023-02-23T10:12:20;97634.28;;;23.29;35.01
50057;BME280;36875;49.468;11.200;2023-02-23T10:15:12;97639.88;;;23.33;35.02
50057;BME280;36875;49.468;11.200;2023-02-23T10:17:44;97634.28;;;23.29;35.21
50057;BME280;36875;49.468;11.200;2023-02-23T10:20:18;97632.06;;;23.22;35.20
50057;BME280;36875;49.468;11.200;2023-02-23T10:22:49;97641.09;;;23.23;35.32
50057;BME280;36875;49.468;11.200;2023-02-23T10:25:18;97627.72;;;23.21;35.29
50057;BME280;36875;49.468;11.200;2023-02-23T10:27:49;97624.63;;;23.11;35.64
50057;BME280;36875;49.468;11.200;2023-02-23T10:30:18;97635.47;;;23.07;35.78
50057;BME280;36875;49.468;11.200;2023-02-23T10:32:49;97641.41;;;23.09;35.79
50057;BME280;36875;49.468;11.200;2023-02-23T10:35:19;97631.75;;;23.03;36.06
50057;BME280;36875;49.468;11.200;2023-02-23T10:37:46;97637.50;;;23.10;35.83
50057;BME280;36875;49.468;11.200;2023-02-23T10:40:14;97640.38;;;23.14;35.85
50057;BME280;36875;49.468;11.200;2023-02-23T10:42:41;97640.13;;;23.40;35.70
50057;BME280;36875;49.468;11.200;2023-02-23T10:45:13;97640.19;;;23.89;35.15
50057;BME280;36875;49.468;11.200;2023-02-23T10:47:43;97635.25;;;23.95;35.25
50057;BME280;36875;49.468;11.200;2023-02-23T10:50:10;97643.72;;;24.02;35.05
50057;BME280;36875;49.468;11.200;2023-02-23T10:52:40;97641.31;;;24.00;35.22
50057;BME280;36875;49.468;11.200;2023-02-23T10:55:19;97639.38;;;23.89;35.53
50057;BME280;36875;49.468;11.200;2023-02-23T10:57:47;97641.78;;;24.15;35.04
50057;BME280;36875;49.468;11.200;2023-02-23T11:00:26;97640.41;;;23.96;35.30
50057;BME280;36875;49.468;11.200;2023-02-23T11:02:58;97643.50;;;24.19;35.00
50057;BME280;36875;49.468;11.200;2023-02-23T11:05:32;97641.09;;;24.05;34.69
50057;BME280;36875;49.468;11.200;2023-02-23T11:08:26;97641.97;;;24.47;33.97
50057;BME280;36875;49.468;11.200;2023-02-23T11:11:01;97644.91;;;24.66;33.73
50057;BME280;36875;49.468;11.200;2023-02-23T11:13:30;97641.88;;;24.84;33.39
50057;BME280;36875;49.468;11.200;2023-02-23T11:15:59;97641.66;;;24.89;33.49
50057;BME280;36875;49.468;11.200;2023-02-23T11:18:26;97635.97;;;24.97;33.10
50057;BME280;36875;49.468;11.200;2023-02-23T11:20:52;97637.34;;;25.04;33.08
50057;BME280;36875;49.468;11.200;2023-02-23T11:23:23;97634.72;;;24.95;33.41
50057;BME280;36875;49.468;11.200;2023-02-23T11:25:52;97626.03;;;24.93;33.89
50057;BME280;36875;49.468;11.200;2023-02-23T11:28:27;97627.56;;;24.78;33.75
50057;BME280;36875;49.468;11.200;2023-02-23T11:30:55;97614.47;;;24.87;33.60
50057;BME280;36875;49.468;11.200;2023-02-23T11:33:27;97622.59;;;25.12;33.15
50057;BME280;36875;49.468;11.200;2023-02-23T11:35:59;97617.25;;;25.03;33.36
50057;BME280;36875;49.468;11.200;2023-02-23T11:38:36;97618.84;;;25.04;33.43
50057;BME280;36875;49.468;11.200;2023-02-23T11:41:04;97617.88;;;25.12;33.35
50057;BME280;36875;49.468;11.200;2023-02-23T11:43:31;97610.59;;;25.04;33.60
50057;BME280;36875;49.468;11.200;2023-02-23T11:45:58;97614.72;;;24.82;34.00
50057;BME280;36875;49.468;11.200;2023-02-23T11:48:28;97616.59;;;24.94;33.62
50057;BME280;36875;49.468;11.200;2023-02-23T11:50:57;97609.06;;;24.91;33.72
50057;BME280;36875;49.468;11.200;2023-02-23T11:53:28;97611.28;;;24.85;33.73
50057;BME280;36875;49.468;11.200;2023-02-23T11:55:58;97610.09;;;24.86;33.89
50057;BME280;36875;49.468;11.200;2023-02-23T11:58:33;97605.91;;;24.76;34.28
50057;BME280;36875;49.468;11.200;2023-02-23T12:01:03;97599.97;;;24.74;34.18
50057;BME280;36875;49.468;11.200;2023-02-23T12:03:42;97599.63;;;24.92;34.14
50057;BME280;36875;49.468;11.200;2023-02-23T12:06:09;97597.03;;;24.83;34.34
50057;BME280;36875;49.468;11.200;2023-02-23T12:08:39;97600.84;;;24.78;34.53
50057;BME280;36875;49.468;11.200;2023-02-23T12:11:10;97597.22;;;24.90;34.61
50057;BME280;36875;49.468;11.200;2023-02-23T12:13:41;97594.22;;;24.95;34.27
50057;BME280;36875;49.468;11.200;2023-02-23T12:16:14;97598.59;;;25.12;33.86
50057;BME280;36875;49.468;11.200;2023-02-23T12:18:47;97603.66;;;25.10;33.99
50057;BME280;36875;49.468;11.200;2023-02-23T12:21:22;97601.09;;;25.17;34.45
50057;BME280;36875;49.468;11.200;2023-02-23T12:23:49;97591.56;;;25.43;34.26
50057;BME280;36875;49.468;11.200;2023-02-23T12:26:20;97598.31;;;25.62;34.01
50057;BME280;36875;49.468;11.200;2023-02-23T12:28:51;97604.09;;;25.88;33.54
50057;BME280;36875;49.468;11.200;2023-02-23T12:31:22;97591.09;;;26.05;33.23
50057;BME280;36875;49.468;11.200;2023-02-23T12:33:54;97593.00;;;26.20;32.74
50057;BME280;36875;49.468;11.200;2023-02-23T12:36:25;97584.81;;;26.24;32.72
50057;BME280;36875;49.468;11.200;2023-02-23T12:38:59;97590.28;;;26.40;32.62
50057;BME280;36875;49.468;11.200;2023-02-23T12:41:36;97587.75;;;26.50;32.21
50057;BME280;36875;49.468;11.200;2023-02-23T12:44:10;97588.88;;;26.65;31.86
50057;BME280;36875;49.468;11.200;2023-02-23T12:46:43;97575.53;;;26.51;32.47
50057;BME280;36875;49.468;11.200;2023-02-23T12:49:22;97581.41;;;26.50;32.10
50057;BME280;36875;49.468;11.200;2023-02-23T12:51:54;97577.78;;;26.46;32.15
50057;BME280;36875;49.468;11.200;2023-02-23T12:54:23;97577.28;;;26.40;32.77
50057;BME280;36875;49.468;11.200;2023-02-23T12:56:53;97569.00;;;26.40;32.73
50057;BME280;36875;49.468;11.200;2023-02-23T12:59:57;97575.25;;;26.37;32.36
50057;BME280;36875;49.468;11.200;2023-02-23T13:02:29;97565.16;;;26.25;32.69
50057;BME280;36875;49.468;11.200;2023-02-23T13:05:15;97569.34;;;26.19;32.93
50057;BME280;36875;49.468;11.200;2023-02-23T13:07:47;97566.72;;;26.26;32.57
50057;BME280;36875;49.468;11.200;2023-02-23T13:10:23;97560.69;;;26.21;32.84